Time;durP1;ratioP1;P1;durP2;ratioP2;P2;SDS_P1;SDS_P2;PMS_P1;PMS_P2;Temp;Humidity;BMP_temperature;BMP_pressure;BME280_temperature;BME280_humidity;BME280_pressure;Samples;Min_cycle;Max_cycle;Signal;HPM_P1;HPM_P2
2023/07/10 00:00:53;;;;;;;6.07;4.30;;;24.90;95.20;;;;;;5089969;28;20551;-62
2023/07/10 00:03:20;;;;;;;48.23;19.43;;;24.90;91.80;;;;;;5089184;28;20485;-61
2023/07/10 00:05:47;;;;;;;12.73;7.00;;;24.70;91.30;;;;;;5089031;28;20430;-61
2023/07/10 00:08:14;;;;;;;6.20;4.40;;;24.80;65.90;;;;;;5093793;28;20442;-61
2023/07/10 00:10:41;;;;;;;4.77;4.03;;;;;;;;;;5093918;28;20477;-61
2023/07/10 00:13:11;;;;;;;8.10;4.87;;;25.30;95.50;;;;;;5093944;28;20446;-58
2023/07/10 00:15:38;;;;;;;6.00;4.33;;;25.20;95.70;;;;;;5091319;28;20504;-60
2023/07/10 00:18:13;;;;;;;46.40;22.70;;;25.00;61.70;;;;;;5092291;28;20434;-61
2023/07/10 00:20:40;;;;;;;37.77;18.47;;;24.60;91.60;;;;;;5093352;28;20941;-61
2023/07/10 00:23:07;;;;;;;15.73;8.57;;;24.90;91.50;;;;;;5093596;28;20497;-60
2023/07/10 00:25:34;;;;;;;9.17;5.43;;;24.80;95.30;;;;;;5092336;28;20577;-61
2023/07/10 00:28:01;;;;;;;7.77;4.90;;;24.80;94.60;;;;;;5095582;28;20457;-62
2023/07/10 00:30:28;;;;;;;5.43;4.43;;;;;;;;;;5088768;28;20458;-60
2023/07/10 00:32:56;;;;;;;7.03;4.87;;;24.90;91.70;;;;;;5094874;28;20445;-61
2023/07/10 00:35:26;;;;;;;6.17;4.53;;;24.90;93.40;;;;;;5094534;28;20477;-60
2023/07/10 00:38:00;;;;;;;6.73;4.63;;;24.60;95.20;;;;;;5089404;28;20466;-61
2023/07/10 00:40:29;;;;;;;6.27;4.57;;;24.80;58.80;;;;;;5096034;28;20512;-61
2023/07/10 00:43:01;;;;;;;4.60;3.67;;;24.90;94.00;;;;;;5094274;28;20438;-62
2023/07/10 00:45:28;;;;;;;8.70;4.97;;;24.80;91.80;;;;;;5095539;28;20462;-61
2023/07/10 00:48:07;;;;;;;5.40;4.10;;;25.00;91.80;;;;;;5091373;28;20468;-62
2023/07/10 00:50:40;;;;;;;4.60;4.17;;;24.90;94.90;;;;;;5094798;28;20458;-61
2023/07/10 00:53:24;;;;;;;7.80;4.63;;;24.70;62.10;;;;;;5092936;28;20449;-62
2023/07/10 00:55:53;;;;;;;6.80;5.03;;;24.70;61.50;;;;;;5092564;28;20473;-62
2023/07/10 00:58:24;;;;;;;4.37;3.90;;;24.90;95.50;;;;;;5092660;28;20543;-62
2023/07/10 01:01:02;;;;;;;7.40;4.27;;;24.40;91.40;;;;;;5093136;28;20549;-60
2023/07/10 01:03:30;;;;;;;4.93;3.87;;;;;;;;;;5094117;28;20517;-60
2023/07/10 01:06:02;;;;;;;7.23;5.10;;;25.00;92.30;;;;;;5097838;28;20425;-61
2023/07/10 01:08:30;;;;;;;5.67;5.10;;;24.50;94.50;;;;;;5098078;28;20442;-62
2023/07/10 01:10:57;;;;;;;4.50;4.10;;;;;;;;;;5098239;28;20428;-61
2023/07/10 01:13:27;;;;;;;5.30;4.30;;;24.60;56.80;;;;;;5097300;28;20427;-60
2023/07/10 01:15:55;;;;;;;5.40;4.03;;;;;;;;;;5098067;28;20469;-63
2023/07/10 01:18:24;;;;;;;6.80;3.57;;;24.30;94.10;;;;;;5097448;28;20457;-61
2023/07/10 01:21:00;;;;;;;5.67;3.93;;;24.80;92.70;;;;;;5093081;28;20504;-60
2023/07/10 01:23:27;;;;;;;6.30;4.20;;;24.50;96.20;;;;;;5096954;28;20433;-60
2023/07/10 01:25:59;;;;;;;4.27;3.80;;;24.60;92.90;;;;;;5097340;28;20910;-61
2023/07/10 01:28:27;;;;;;;4.60;3.87;;;25.00;92.80;;;;;;5097874;28;20426;-59
2023/07/10 01:30:57;;;;;;;5.60;4.10;;;24.70;63.50;;;;;;5098097;28;20427;-61
2023/07/10 01:33:27;;;;;;;7.00;4.40;;;24.70;94.00;;;;;;5097843;28;20442;-61
2023/07/10 01:35:56;;;;;;;8.90;3.40;;;24.30;92.90;;;;;;5097547;28;20422;-61
2023/07/10 01:38:31;;;;;;;7.30;4.47;;;24.50;93.30;;;;;;5095817;28;20454;-62
2023/07/10 01:41:01;;;;;;;4.43;3.80;;;24.50;64.60;;;;;;5098293;28;20480;-61
2023/07/10 01:43:28;;;;;;;6.20;4.23;;;24.60;93.30;;;;;;5096536;28;20473;-61
2023/07/10 01:45:55;;;;;;;6.23;4.27;;;24.20;93.50;;;;;;5097120;28;20449;-62
2023/07/10 01:48:27;;;;;;;4.60;3.27;;;24.60;94.10;;;;;;5095900;28;20488;-62
2023/07/10 01:50:54;;;;;;;6.80;3.87;;;24.40;94.60;;;;;;5092382;28;20523;-61
2023/07/10 01:53:21;;;;;;;8.60;4.83;;;;;;;;;;5091617;28;20458;-64
2023/07/10 01:55:51;;;;;;;7.40;4.80;;;24.10;70.00;;;;;;5094031;28;20438;-63
2023/07/10 01:58:18;;;;;;;5.40;4.23;;;;;;;;;;5094201;28;20473;-61
2023/07/10 02:00:45;;;;;;;6.07;4.73;;;;;;;;;;5094700;28;20522;-59
2023/07/10 02:03:12;;;;;;;6.00;4.47;;;24.20;96.00;;;;;;5092230;28;20475;-61
2023/07/10 02:05:39;;;;;;;8.20;4.10;;;24.20;99.30;;;;;;5083868;28;20446;-61
2023/07/10 02:08:07;;;;;;;7.57;5.03;;;23.90;70.00;;;;;;5096588;28;20457;-59
2023/07/10 02:10:34;;;;;;;5.00;3.90;;;24.40;99.90;;;;;;5091760;28;20478;-62
2023/07/10 02:13:02;;;;;;;8.70;4.27;;;24.60;96.70;;;;;;5093282;28;20496;-63
2023/07/10 02:15:29;;;;;;;13.30;5.50;;;;;;;;;;5094493;28;20422;-64
2023/07/10 02:17:57;;;;;;;5.57;4.40;;;24.20;99.90;;;;;;5095528;28;20442;-61
2023/07/10 02:20:24;;;;;;;5.00;4.50;;;24.20;99.90;;;;;;5093465;28;20423;-60
2023/07/10 02:22:52;;;;;;;4.93;4.27;;;;;;;;;;5096299;28;20445;-60
2023/07/10 02:25:19;;;;;;;7.73;4.97;;;24.20;95.50;;;;;;5094413;28;20434;-61
2023/07/10 02:27:46;;;;;;;4.77;4.33;;;24.30;97.70;;;;;;5095594;28;20446;-60
2023/07/10 02:30:14;;;;;;;9.67;4.57;;;24.40;95.60;;;;;;5096502;28;20452;-60
2023/07/10 02:32:42;;;;;;;6.63;4.60;;;;;;;;;;5097347;28;20438;-60
2023/07/10 02:35:09;;;;;;;6.17;4.90;;;24.90;97.40;;;;;;5093227;28;20549;-60
2023/07/10 02:37:36;;;;;;;6.37;4.10;;;24.80;95.90;;;;;;5097693;28;20434;-59
2023/07/10 02:40:04;;;;;;;6.07;4.10;;;24.40;99.60;;;;;;5093892;28;20470;-61
2023/07/10 02:42:31;;;;;;;5.13;4.50;;;24.20;95.90;;;;;;5096207;28;20502;-60
2023/07/10 02:44:58;;;;;;;9.00;5.20;;;;;;;;;;5083443;28;20534;-60
2023/07/10 02:47:26;;;;;;;10.97;5.80;;;24.40;95.90;;;;;;5096884;28;20434;-60
2023/07/10 02:49:53;;;;;;;25.07;12.53;;;24.50;99.60;;;;;;5094251;28;20466;-59
2023/07/10 02:52:20;;;;;;;6.63;4.53;;;24.40;95.60;;;;;;5096265;28;20443;-60
2023/07/10 02:54:47;;;;;;;7.27;5.43;;;24.40;79.00;;;;;;5094999;28;20462;-60
2023/07/10 02:57:14;;;;;;;5.47;4.87;;;24.10;99.10;;;;;;5089354;28;20462;-61
2023/07/10 02:59:40;;;;;;;4.40;4.00;;;24.40;95.40;;;;;;5085355;28;20994;-61
2023/07/10 03:02:08;;;;;;;5.50;4.20;;;;;;;;;;5084878;28;20503;-62
2023/07/10 03:04:36;;;;;;;5.63;4.30;;;24.10;99.20;;;;;;5076774;28;20562;-61
2023/07/10 03:07:03;;;;;;;5.83;4.37;;;;;;;;;;5075351;28;20441;-61
2023/07/10 03:09:30;;;;;;;7.30;4.83;;;;;;;;;;5075334;28;20466;-60
2023/07/10 03:11:57;;;;;;;9.10;4.60;;;;;;;;;;5076924;28;20545;-61
2023/07/10 03:14:24;;;;;;;5.93;4.37;;;;;;;;;;5080551;28;20454;-59
2023/07/10 03:16:52;;;;;;;6.93;3.90;;;;;;;;;;5075367;28;20446;-61
2023/07/10 03:19:19;;;;;;;5.03;3.97;;;24.10;96.70;;;;;;5075159;28;20776;-60
2023/07/10 03:21:47;;;;;;;4.87;3.90;;;23.70;84.60;;;;;;5076513;28;20474;-60
2023/07/10 03:24:14;;;;;;;3.93;3.40;;;;;;;;;;5077558;28;20521;-59
2023/07/10 03:26:41;;;;;;;5.43;4.00;;;23.50;96.60;;;;;;5077849;28;20477;-60
2023/07/10 03:29:11;;;;;;;6.60;5.10;;;23.70;73.30;;;;;;5078197;28;20446;-58
2023/07/10 03:31:38;;;;;;;7.13;5.17;;;;;;;;;;5076422;28;20454;-59
2023/07/10 03:34:05;;;;;;;4.30;3.90;;;23.70;99.90;;;;;;5074621;28;20948;-59
2023/07/10 03:36:33;;;;;;;4.80;4.30;;;;;;;;;;5074727;28;20447;-59
2023/07/10 03:39:01;;;;;;;6.60;4.13;;;23.40;97.60;;;;;;5075562;28;20525;-62
2023/07/10 03:41:28;;;;;;;6.60;4.90;;;23.70;98.40;;;;;;5075995;28;20493;-60
2023/07/10 03:43:55;;;;;;;4.77;4.13;;;;;;;;;;5077090;28;20534;-61
2023/07/10 03:46:24;;;;;;;4.20;3.47;;;23.50;75.80;;;;;;5078694;28;20509;-61
2023/07/10 03:48:51;;;;;;;8.40;4.03;;;23.40;98.30;;;;;;5078986;28;20518;-59
2023/07/10 03:51:19;;;;;;;6.10;4.47;;;23.60;75.60;;;;;;5082999;28;20478;-59
2023/07/10 03:53:46;;;;;;;6.93;4.30;;;;;;;;;;5079256;28;20442;-58
2023/07/10 03:56:15;;;;;;;5.27;4.37;;;;;;;;;;5078883;28;20975;-60
2023/07/10 03:58:43;;;;;;;7.70;4.07;;;;;;;;;;5075794;28;20442;-62
2023/07/10 04:01:10;;;;;;;5.70;4.63;;;;;;;;;;5075177;28;20863;-58
2023/07/10 04:03:38;;;;;;;5.50;3.70;;;;;;;;;;5074895;28;20502;-61
2023/07/10 04:06:06;;;;;;;4.83;3.23;;;23.60;77.70;;;;;;5078529;28;20529;-59
2023/07/10 04:08:35;;;;;;;7.43;4.67;;;23.10;98.40;;;;;;5079709;28;20515;-60
2023/07/10 04:11:04;;;;;;;4.63;4.20;;;23.50;77.30;;;;;;5074517;28;20529;-60
2023/07/10 04:13:32;;;;;;;4.40;4.00;;;23.40;77.80;;;;;;5076047;28;20854;-60
2023/07/10 04:16:02;;;;;;;5.83;3.53;;;23.20;97.30;;;;;;5074206;28;20516;-61
2023/07/10 04:18:29;;;;;;;5.10;4.13;;;23.40;99.20;;;;;;5080998;28;20464;-60
2023/07/10 04:20:57;;;;;;;4.63;4.07;;;23.70;78.80;;;;;;5089395;28;20533;-60
2023/07/10 04:23:24;;;;;;;4.90;3.47;;;;;;;;;;5079845;28;20525;-59
2023/07/10 04:25:52;;;;;;;6.00;4.27;;;;;;;;;;5078411;28;20514;-59
2023/07/10 04:28:18;;;;;;;4.20;3.37;;;23.30;99.90;;;;;;5079193;28;20467;-59
2023/07/10 04:30:48;;;;;;;7.30;4.13;;;23.50;99.90;;;;;;5084426;28;20576;-59
2023/07/10 04:33:15;;;;;;;6.57;4.80;;;23.20;99.90;;;;;;5081157;28;20449;-58
2023/07/10 04:35:43;;;;;;;6.20;3.93;;;;;;;;;;5078734;28;20470;-60
2023/07/10 04:38:10;;;;;;;5.37;4.33;;;;;;;;;;5077891;28;20953;-60
2023/07/10 04:40:37;;;;;;;4.93;3.37;;;;;;;;;;5078846;28;20909;-60
2023/07/10 04:43:05;;;;;;;6.33;4.20;;;;;;;;;;5078531;28;20581;-59
2023/07/10 04:45:32;;;;;;;7.93;4.17;;;23.40;99.90;;;;;;5078637;28;20537;-60
2023/07/10 04:48:00;;;;;;;6.03;4.30;;;23.60;82.60;;;;;;5078476;28;20466;-60
2023/07/10 04:50:29;;;;;;;7.77;4.60;;;23.40;99.90;;;;;;5078925;28;20438;-59
2023/07/10 04:52:56;;;;;;;8.20;4.33;;;23.50;99.90;;;;;;5081711;28;20558;-61
2023/07/10 04:55:23;;;;;;;4.60;4.10;;;;;;;;;;5082978;28;20470;-61
2023/07/10 04:57:50;;;;;;;7.30;4.53;;;;;;;;;;5082167;28;20545;-59
2023/07/10 05:00:18;;;;;;;6.93;4.33;;;23.50;99.90;;;;;;5083096;28;20514;-59
2023/07/10 05:02:46;;;;;;;4.50;4.07;;;;;;;;;;5096088;28;20470;-60
2023/07/10 05:05:14;;;;;;;6.73;4.63;;;;;;;;;;5091469;28;20423;-59
2023/07/10 05:07:42;;;;;;;6.33;4.63;;;;;;;;;;5089145;28;20462;-58
2023/07/10 05:10:09;;;;;;;6.90;4.30;;;24.00;99.50;;;;;;5092393;28;20450;-57
2023/07/10 05:12:36;;;;;;;7.60;4.10;;;;;;;;;;5094256;28;20446;-61
2023/07/10 05:15:03;;;;;;;7.50;4.97;;;;;;;;;;5083209;28;20517;-61
2023/07/10 05:17:31;;;;;;;6.33;5.00;;;;;;;;;;5078473;28;20527;-60
2023/07/10 05:19:58;;;;;;;5.17;4.60;;;;;;;;;;5080748;28;20442;-60
2023/07/10 05:22:26;;;;;;;5.87;4.37;;;24.10;80.90;;;;;;5087143;28;20903;-60
2023/07/10 05:24:53;;;;;;;6.70;4.50;;;;;;;;;;5085584;28;20505;-62
2023/07/10 05:27:21;;;;;;;5.00;4.57;;;;;;;;;;5083749;28;20442;-62
2023/07/10 05:29:48;;;;;;;5.33;4.50;;;;;;;;;;5077277;28;20527;-59
2023/07/10 05:32:15;;;;;;;4.80;4.30;;;;;;;;;;5076784;28;20449;-60
2023/07/10 05:34:42;;;;;;;8.47;4.43;;;23.20;99.90;;;;;;5079543;28;20489;-60
2023/07/10 05:37:10;;;;;;;6.23;5.17;;;;;;;;;;5081491;28;20446;-57
2023/07/10 05:39:38;;;;;;;5.70;4.40;;;23.00;96.10;;;;;;5087635;28;20501;-59
2023/07/10 05:42:06;;;;;;;8.00;4.80;;;;;;;;;;5082389;28;20487;-61
2023/07/10 05:44:33;;;;;;;8.57;5.57;;;;;;;;;;5082804;28;20493;-60
2023/07/10 05:47:00;;;;;;;7.73;5.20;;;;;;;;;;5081445;28;20461;-61
2023/07/10 05:49:27;;;;;;;6.40;4.47;;;22.30;99.90;;;;;;5078361;28;20810;-60
2023/07/10 05:51:54;;;;;;;7.43;5.33;;;22.20;99.90;;;;;;5079545;28;20930;-60
2023/07/10 05:54:21;;;;;;;5.63;4.70;;;22.10;99.90;;;;;;5080909;28;20481;-62
2023/07/10 05:56:49;;;;;;;7.70;5.77;;;22.10;99.90;;;;;;5089089;28;20431;-59
2023/07/10 05:59:16;;;;;;;11.63;6.00;;;;;;;;;;5089889;28;20510;-60
2023/07/10 06:01:44;;;;;;;8.67;6.37;;;;;;;;;;5081652;28;20462;-61
2023/07/10 06:04:10;;;;;;;7.20;6.50;;;21.90;99.90;;;;;;5080605;28;20442;-59
2023/07/10 06:06:38;;;;;;;11.07;7.20;;;;;;;;;;5081129;28;20444;-58
2023/07/10 06:09:06;;;;;;;19.13;7.37;;;21.60;99.90;;;;;;5083325;28;20533;-61
2023/07/10 06:11:34;;;;;;;12.33;6.30;;;21.40;99.90;;;;;;5082194;28;20469;-61
2023/07/10 06:14:02;;;;;;;14.60;7.63;;;21.50;99.90;;;;;;5081733;28;20596;-61
2023/07/10 06:16:29;;;;;;;12.80;6.20;;;;;;;;;;5082331;28;20450;-60
2023/07/10 06:18:56;;;;;;;14.93;5.80;;;21.40;99.90;;;;;;5085861;28;20943;-61
2023/07/10 06:21:23;;;;;;;7.40;5.70;;;;;;;;;;5085889;28;20501;-60
2023/07/10 06:23:50;;;;;;;13.10;6.07;;;;;;;;;;5082515;28;20443;-58
2023/07/10 06:26:17;;;;;;;8.47;5.93;;;21.10;99.90;;;;;;5081980;28;20799;-58
2023/07/10 06:28:44;;;;;;;10.90;6.67;;;21.60;99.90;;;;;;5081855;28;20533;-60
2023/07/10 06:31:12;;;;;;;8.57;6.57;;;21.20;99.90;;;;;;5081860;28;20835;-62
2023/07/10 06:33:40;;;;;;;9.43;6.20;;;;;;;;;;5084641;28;20506;-63
2023/07/10 06:36:07;;;;;;;13.73;6.83;;;;;;;;;;5079625;28;20498;-62
2023/07/10 06:38:34;;;;;;;7.73;5.93;;;;;;;;;;5080430;28;20528;-62
2023/07/10 06:41:01;;;;;;;8.90;6.73;;;;;;;;;;5084675;28;20502;-59
2023/07/10 06:43:28;;;;;;;7.93;6.17;;;21.80;99.90;;;;;;5080965;28;20546;-58
2023/07/10 06:45:56;;;;;;;10.40;7.07;;;22.00;99.90;;;;;;5076387;28;20466;-63
2023/07/10 06:48:25;;;;;;;10.13;6.23;;;21.70;99.90;;;;;;5076124;28;20435;-60
2023/07/10 06:50:54;;;;;;;12.73;5.53;;;21.80;99.90;;;;;;5080831;28;20969;-60
2023/07/10 06:53:22;;;;;;;7.83;6.03;;;21.90;99.90;;;;;;5084158;28;20463;-60
2023/07/10 06:55:53;;;;;;;10.50;5.60;;;21.90;99.90;;;;;;5083259;28;20504;-59
2023/07/10 06:58:20;;;;;;;9.93;6.10;;;;;;;;;;5085042;28;20508;-63
2023/07/10 07:00:48;;;;;;;8.77;5.77;;;;;;;;;;5075007;28;20493;-61
2023/07/10 07:03:15;;;;;;;7.60;5.67;;;;;;;;;;5075369;28;20477;-61
2023/07/10 07:05:44;;;;;;;7.40;5.77;;;23.20;99.90;;;;;;5074926;28;20537;-61
2023/07/10 07:08:12;;;;;;;7.00;5.30;;;;;;;;;;5075156;28;20447;-61
2023/07/10 07:10:41;;;;;;;8.10;6.27;;;22.80;99.90;;;;;;5075215;28;20450;-61
2023/07/10 07:13:09;;;;;;;9.57;5.73;;;23.10;99.90;;;;;;5086146;28;20507;-62
2023/07/10 07:15:36;;;;;;;8.60;6.10;;;;;;;;;;5084367;28;20484;-60
2023/07/10 07:18:04;;;;;;;11.17;5.87;;;23.20;99.90;;;;;;5081079;28;20525;-61
2023/07/10 07:20:31;;;;;;;14.03;6.33;;;;;;;;;;5086953;28;20446;-60
2023/07/10 07:22:59;;;;;;;8.03;5.53;;;23.50;99.90;;;;;;5083007;28;21072;-62
2023/07/10 07:25:28;;;;;;;10.90;6.37;;;23.80;99.90;;;;;;5075574;28;20543;-60
2023/07/10 07:27:59;;;;;;;5.57;5.00;;;;;;;;;;5076633;28;20545;-62
2023/07/10 07:30:26;;;;;;;9.63;6.03;;;;;;;;;;5083011;28;20422;-63
2023/07/10 07:32:53;;;;;;;11.13;5.63;;;;;;;;;;5079150;28;20542;-61
2023/07/10 07:35:20;;;;;;;8.40;6.40;;;;;;;;;;5083042;28;20461;-60
2023/07/10 07:37:47;;;;;;;7.23;5.80;;;25.50;99.90;;;;;;5083987;28;20485;-60
2023/07/10 07:40:16;;;;;;;6.37;5.67;;;26.60;99.90;;;;;;5085022;28;20443;-61
2023/07/10 07:42:44;;;;;;;6.83;6.00;;;28.00;99.90;;;;;;5081627;28;20504;-61
2023/07/10 07:45:12;;;;;;;6.77;5.20;;;29.50;99.90;;;;;;5074628;28;20449;-61
2023/07/10 07:47:40;;;;;;;6.60;5.50;;;;;;;;;;5074441;28;20989;-61
2023/07/10 07:50:08;;;;;;;8.80;5.53;;;31.90;99.90;;;;;;5082126;28;20427;-60
2023/07/10 07:52:35;;;;;;;7.00;5.10;;;33.40;99.90;;;;;;5079813;28;20554;-60
2023/07/10 07:55:03;;;;;;;7.47;6.80;;;34.10;99.90;;;;;;5077737;28;20453;-61
2023/07/10 07:57:31;;;;;;;6.87;5.70;;;34.90;99.90;;;;;;5077430;28;20446;-60
2023/07/10 08:00:00;;;;;;;10.97;9.80;;;35.80;75.20;;;;;;5078354;28;20454;-60
2023/07/10 08:02:27;;;;;;;9.30;7.40;;;36.20;99.90;;;;;;5077895;28;20478;-59
2023/07/10 08:04:54;;;;;;;9.60;6.67;;;36.70;98.30;;;;;;5081287;28;20439;-60
2023/07/10 08:07:21;;;;;;;5.93;5.33;;;36.80;94.20;;;;;;5077405;28;20933;-60
2023/07/10 08:09:48;;;;;;;8.60;6.20;;;37.20;91.60;;;;;;5076925;28;20815;-60
2023/07/10 08:12:15;;;;;;;7.10;6.40;;;;;;;;;;5074570;28;20438;-61
2023/07/10 08:14:43;;;;;;;7.23;6.53;;;37.50;60.20;;;;;;5074799;28;20473;-59
2023/07/10 08:17:11;;;;;;;6.60;5.53;;;37.60;92.80;;;;;;5075728;28;20564;-60
2023/07/10 08:19:37;;;;;;;7.70;6.43;;;37.30;85.20;;;;;;5076315;28;20455;-60
2023/07/10 08:22:05;;;;;;;7.27;6.20;;;37.70;90.20;;;;;;5081631;28;20469;-61
2023/07/10 08:24:32;;;;;;;9.60;6.10;;;;;;;;;;5081376;28;20462;-60
2023/07/10 08:26:59;;;;;;;6.90;5.80;;;37.40;90.60;;;;;;5083528;28;20478;-60
2023/07/10 08:29:28;;;;;;;5.87;5.20;;;37.50;84.10;;;;;;5079057;28;21001;-61
2023/07/10 08:31:58;;;;;;;7.67;6.93;;;37.40;56.50;;;;;;5077864;28;20448;-59
2023/07/10 08:34:25;;;;;;;7.47;6.33;;;;;;;;;;5078378;28;20465;-60
2023/07/10 08:36:53;;;;;;;8.73;6.83;;;;;;;;;;5078792;28;20525;-59
2023/07/10 08:39:20;;;;;;;12.00;8.33;;;36.30;86.80;;;;;;5080849;28;20554;-59
2023/07/10 08:41:51;;;;;;;7.90;7.10;;;36.10;93.90;;;;;;5080343;28;20533;-60
2023/07/10 08:44:18;;;;;;;7.00;6.30;;;;;;;;;;5080014;28;20577;-61
2023/07/10 08:46:47;;;;;;;7.47;6.80;;;35.60;92.50;;;;;;5080504;28;20436;-61
2023/07/10 08:49:25;;;;;;;7.57;6.87;;;35.60;90.10;;;;;;5080705;28;20534;-59
2023/07/10 08:51:57;;;;;;;9.00;8.17;;;36.10;90.50;;;;;;5079985;28;20434;-60
2023/07/10 08:54:25;;;;;;;13.53;11.27;;;;;;;;;;5077955;28;20462;-58
2023/07/10 08:57:03;;;;;;;12.87;9.00;;;36.70;94.20;;;;;;5079687;28;20509;-60
2023/07/10 08:59:42;;;;;;;8.17;7.37;;;37.00;88.30;;;;;;5077583;28;20519;-61
2023/07/10 09:02:20;;;;;;;7.07;6.37;;;37.40;55.90;;;;;;5100676;28;20406;-49
2023/07/10 09:04:50;;;;;;;7.30;6.60;;;37.50;60.20;;;;;;5078383;28;20466;-60
2023/07/10 09:07:19;;;;;;;12.33;7.60;;;37.30;89.60;;;;;;5079604;28;20460;-63
2023/07/10 09:09:50;;;;;;;8.60;7.43;;;37.40;59.30;;;;;;5078019;28;20930;-60
2023/07/10 09:12:24;;;;;;;7.77;7.10;;;37.60;85.00;;;;;;5077199;28;20434;-62
2023/07/10 09:14:55;;;;;;;6.83;6.20;;;37.60;84.20;;;;;;5077953;28;20462;-60
2023/07/10 09:17:36;;;;;;;9.43;7.17;;;37.60;87.00;;;;;;5080455;28;20512;-61
2023/07/10 09:20:08;;;;;;;7.47;6.80;;;37.30;83.80;;;;;;5080853;28;20466;-63
2023/07/10 09:22:38;;;;;;;7.70;6.90;;;37.90;86.60;;;;;;5084016;28;20427;-60
2023/07/10 09:25:11;;;;;;;6.40;5.80;;;37.70;53.60;;;;;;5077151;28;20906;-61
2023/07/10 09:27:41;;;;;;;7.97;7.17;;;37.80;84.00;;;;;;5077794;28;20503;-60
2023/07/10 09:30:18;;;;;;;10.83;6.50;;;37.90;89.20;;;;;;5092467;28;20486;-60
2023/07/10 09:32:45;;;;;;;12.73;6.60;;;37.70;86.30;;;;;;5084249;28;20502;-61
2023/07/10 09:35:17;;;;;;;7.60;6.80;;;37.70;80.10;;;;;;5080378;28;20485;-60
2023/07/10 09:37:50;;;;;;;8.93;7.47;;;37.60;54.70;;;;;;5076009;28;20466;-60
2023/07/10 09:40:38;;;;;;;8.13;7.33;;;37.60;83.50;;;;;;5076982;28;20514;-61
2023/07/10 09:43:05;;;;;;;7.63;6.93;;;37.80;82.60;;;;;;5076854;28;20847;-61
2023/07/10 09:45:38;;;;;;;8.13;7.43;;;37.90;89.70;;;;;;5077390;28;20481;-61
2023/07/10 09:48:13;;;;;;;7.30;6.70;;;38.20;88.10;;;;;;5079925;28;20453;-61
2023/07/10 09:50:46;;;;;;;7.60;6.90;;;38.00;51.00;;;;;;5079854;28;20476;-60
2023/07/10 09:53:25;;;;;;;7.67;6.97;;;38.30;85.70;;;;;;5081242;28;20833;-60
2023/07/10 09:55:52;;;;;;;7.40;6.70;;;;;;;;;;5084092;28;20437;-62
2023/07/10 09:58:19;;;;;;;8.90;7.00;;;38.50;78.00;;;;;;5085057;28;20437;-59
2023/07/10 10:00:48;;;;;;;7.80;7.10;;;;;;;;;;5086001;28;20474;-60
2023/07/10 10:03:19;;;;;;;7.57;6.80;;;38.70;83.50;;;;;;5083124;28;20482;-61
2023/07/10 10:05:55;;;;;;;8.10;7.30;;;38.80;50.30;;;;;;5083472;28;20463;-60
2023/07/10 10:08:25;;;;;;;9.53;8.60;;;39.00;60.60;;;;;;5081590;28;20495;-60
2023/07/10 10:11:03;;;;;;;7.83;7.13;;;38.50;79.30;;;;;;5084710;28;20509;-58
2023/07/10 10:13:33;;;;;;;8.67;7.90;;;38.50;51.20;;;;;;5096076;28;20446;-59
2023/07/10 10:16:05;;;;;;;10.20;7.53;;;38.40;50.70;;;;;;5084304;28;20469;-62
2023/07/10 10:18:40;;;;;;;9.20;8.30;;;38.30;90.50;;;;;;5083362;28;20434;-59
2023/07/10 10:21:11;;;;;;;9.50;8.10;;;38.00;90.30;;;;;;5085406;28;20454;-61
2023/07/10 10:23:40;;;;;;;7.07;6.37;;;38.30;89.40;;;;;;5083166;28;20997;-63
2023/07/10 10:26:35;;;;;;;8.27;7.47;;;37.70;88.20;;;;;;5081878;28;20930;-62
2023/07/10 10:29:20;;;;;;;10.50;9.50;;;37.70;65.60;;;;;;5070414;28;20538;-58
2023/07/10 10:31:53;;;;;;;9.77;8.77;;;37.90;70.50;;;;;;5082252;28;20423;-60
2023/07/10 10:34:32;;;;;;;8.30;7.40;;;38.10;88.00;;;;;;5082154;28;20458;-60
2023/07/10 10:37:23;;;;;;;7.90;6.77;;;37.50;81.80;;;;;;5077040;28;20484;-61
2023/07/10 10:39:58;;;;;;;7.40;6.80;;;37.30;56.10;;;;;;5079236;28;20965;-61
2023/07/10 10:42:32;;;;;;;8.40;7.57;;;37.20;53.80;;;;;;5075787;28;20454;-62
2023/07/10 10:45:10;;;;;;;6.27;5.73;;;36.40;53.30;;;;;;5079853;28;20562;-62
2023/07/10 10:47:47;;;;;;;7.07;6.37;;;36.50;55.10;;;;;;5080906;28;20518;-59
2023/07/10 10:50:45;;;;;;;6.27;5.23;;;36.30;84.10;;;;;;5079545;28;20431;-63
2023/07/10 10:53:39;;;;;;;9.10;8.30;;;36.00;91.60;;;;;;5075013;28;20905;-62
2023/07/10 10:56:19;;;;;;;8.77;7.43;;;35.70;90.30;;;;;;5075689;28;20460;-62
2023/07/10 10:59:01;;;;;;;8.47;5.93;;;35.10;53.70;;;;;;5078865;28;20959;-59
2023/07/10 11:01:35;;;;;;;8.17;6.53;;;34.50;89.00;;;;;;5079894;28;20427;-61
2023/07/10 11:04:15;;;;;;;6.87;6.17;;;34.30;58.60;;;;;;5081519;28;20535;-61
2023/07/10 11:06:47;;;;;;;6.73;6.03;;;34.30;59.50;;;;;;5082613;28;20867;-61
2023/07/10 11:09:20;;;;;;;7.27;6.40;;;34.20;60.40;;;;;;5079520;28;20474;-63
2023/07/10 11:11:47;;;;;;;6.03;5.53;;;33.70;59.70;;;;;;5079500;28;20477;-59
2023/07/10 11:14:14;;;;;;;7.20;6.50;;;;;;;;;;5079354;28;20541;-60
2023/07/10 11:16:42;;;;;;;6.07;5.40;;;33.60;93.70;;;;;;5079160;28;20478;-59
2023/07/10 11:19:16;;;;;;;6.63;5.80;;;33.60;61.40;;;;;;5079613;28;20518;-60
2023/07/10 11:21:44;;;;;;;7.20;6.30;;;;;;;;;;5080238;28;20434;-61
2023/07/10 11:24:17;;;;;;;6.60;6.00;;;33.60;94.80;;;;;;5079615;28;20555;-60
2023/07/10 11:26:51;;;;;;;7.20;6.50;;;33.90;60.00;;;;;;5080674;28;20488;-59
2023/07/10 11:29:22;;;;;;;7.60;6.77;;;33.80;58.90;;;;;;5083057;28;20434;-59
2023/07/10 11:31:55;;;;;;;7.50;6.80;;;33.70;93.10;;;;;;5079346;28;20446;-61
2023/07/10 11:34:54;;;;;;;7.83;7.03;;;33.20;59.10;;;;;;5079349;28;20725;-59
2023/07/10 11:38:09;;;;;;;6.73;6.10;;;33.30;59.50;;;;;;5079255;28;20466;-57
2023/07/10 11:41:07;;;;;;;8.80;7.90;;;33.20;57.70;;;;;;5079271;28;20466;-60
2023/07/10 11:44:11;;;;;;;8.37;7.50;;;33.10;96.50;;;;;;5083785;28;20462;-63
2023/07/10 11:46:38;;;;;;;10.07;9.17;;;;;;;;;;5083258;28;20544;-59
2023/07/10 11:49:23;;;;;;;10.10;9.10;;;32.40;93.50;;;;;;5083824;28;20431;-64
2023/07/10 11:52:11;;;;;;;9.43;8.60;;;32.10;98.00;;;;;;5080040;28;20520;-61
2023/07/10 11:54:39;;;;;;;9.50;8.70;;;;;;;;;;5082327;28;20442;-61
2023/07/10 11:57:15;;;;;;;10.10;9.20;;;31.10;99.60;;;;;;5079182;28;20515;-61
2023/07/10 11:59:49;;;;;;;10.77;9.77;;;29.70;72.80;;;;;;5080108;28;20440;-60
2023/07/10 12:02:37;;;;;;;9.83;8.83;;;31.40;99.90;;;;;;5080559;28;20473;-60
2023/07/10 12:05:13;;;;;;;9.27;8.20;;;31.10;71.00;;;;;;5078791;28;21020;-60
2023/07/10 12:07:51;;;;;;;8.57;7.70;;;31.10;99.20;;;;;;5078820;28;20505;-62
2023/07/10 12:10:18;;;;;;;9.20;8.23;;;;;;;;;;5080109;28;20468;-61
2023/07/10 12:12:47;;;;;;;11.03;7.70;;;30.70;99.60;;;;;;5078571;28;20464;-62
2023/07/10 12:15:14;;;;;;;8.83;8.03;;;;;;;;;;5078677;28;20528;-62
2023/07/10 12:17:41;;;;;;;8.57;7.80;;;31.00;99.90;;;;;;5079123;28;20488;-60
2023/07/10 12:20:22;;;;;;;11.20;7.80;;;31.10;97.10;;;;;;5081116;28;20506;-62
2023/07/10 12:22:51;;;;;;;9.40;8.27;;;31.20;90.60;;;;;;5086324;28;20473;-60
2023/07/10 12:25:19;;;;;;;8.73;8.00;;;;;;;;;;5077882;28;20553;-60
2023/07/10 12:27:47;;;;;;;9.13;7.47;;;31.40;75.80;;;;;;5079334;28;20482;-60
2023/07/10 12:30:21;;;;;;;8.53;7.80;;;31.00;99.90;;;;;;5078501;28;20533;-59
2023/07/10 12:32:51;;;;;;;9.00;8.10;;;30.80;99.90;;;;;;5077591;28;20473;-62
2023/07/10 12:35:26;;;;;;;9.00;8.10;;;30.40;90.40;;;;;;5078392;28;20457;-60
2023/07/10 12:37:53;;;;;;;9.43;8.70;;;30.20;99.90;;;;;;5077728;28;20497;-60
2023/07/10 12:40:21;;;;;;;9.20;8.30;;;;;;;;;;5077740;28;20930;-60
2023/07/10 12:42:49;;;;;;;9.80;8.87;;;30.80;99.90;;;;;;5082214;28;20456;-56
2023/07/10 12:45:27;;;;;;;8.80;8.10;;;30.40;99.90;;;;;;5088051;28;20501;-62
2023/07/10 12:48:01;;;;;;;9.13;8.33;;;30.10;83.90;;;;;;5083246;28;20518;-60
2023/07/10 12:50:42;;;;;;;9.60;8.70;;;29.80;80.70;;;;;;5077749;28;20575;-59
2023/07/10 12:53:18;;;;;;;9.97;9.07;;;29.80;99.90;;;;;;5089230;28;20441;-50
2023/07/10 12:55:45;;;;;;;10.20;9.20;;;29.60;99.90;;;;;;5098349;28;20465;-62
2023/07/10 12:58:15;;;;;;;9.23;8.30;;;29.40;94.80;;;;;;5079482;28;20452;-53
2023/07/10 13:00:47;;;;;;;8.40;7.70;;;29.50;99.90;;;;;;5088899;28;20463;-63
2023/07/10 13:03:27;;;;;;;10.63;7.53;;;29.30;99.50;;;;;;5088363;28;20933;-57
2023/07/10 13:06:00;;;;;;;8.03;7.20;;;28.80;99.90;;;;;;5078833;28;20426;-56
2023/07/10 13:08:36;;;;;;;12.40;7.40;;;28.50;99.90;;;;;;5097885;28;20423;-59
2023/07/10 13:11:03;;;;;;;7.53;6.83;;;;;;;;;;5078899;28;20523;-61
2023/07/10 13:13:42;;;;;;;8.00;7.00;;;28.60;99.90;;;;;;5085662;28;20894;-55
2023/07/10 13:16:17;;;;;;;10.97;7.13;;;28.50;99.90;;;;;;5101465;28;20398;-50
2023/07/10 13:18:44;;;;;;;7.60;6.90;;;28.40;99.90;;;;;;5077133;28;20508;-61
2023/07/10 13:21:15;;;;;;;9.03;7.50;;;27.90;99.90;;;;;;5077423;28;20766;-60
2023/07/10 13:23:42;;;;;;;9.13;8.20;;;28.30;99.90;;;;;;5076911;28;20490;-61
2023/07/10 13:26:17;;;;;;;10.60;8.07;;;28.00;99.90;;;;;;5084886;28;20476;-55
2023/07/10 13:28:47;;;;;;;8.53;7.77;;;27.90;99.90;;;;;;5101274;28;20413;-53